createdAt,value
2018-12-07T00:00:21.425Z,21.57
2018-12-07T00:00:53.997Z,22.40
2018-12-07T00:01:26.579Z,22.07
2018-12-07T00:01:59.150Z,20.23
2018-12-07T00:02:31.739Z,21.12
2018-12-07T00:03:04.436Z,22.10
2018-12-07T00:03:37.031Z,21.02
2018-12-07T00:04:09.649Z,22.15
2018-12-07T00:04:42.226Z,20.35
2018-12-07T00:05:14.792Z,20.10
2018-12-07T00:05:47.366Z,19.50
2018-12-07T00:06:19.939Z,19.92
2018-12-07T00:06:52.477Z,21.40
2018-12-07T00:07:25.038Z,20.45
2018-12-07T00:07:57.618Z,21.02
2018-12-07T00:08:30.201Z,20.60
2018-12-07T00:09:03.592Z,20.30
2018-12-07T00:09:36.162Z,22.05
2018-12-07T00:10:08.865Z,19.42
2018-12-07T00:10:41.419Z,19.55
2018-12-07T00:11:13.978Z,19.82
2018-12-07T00:11:46.539Z,20.50
2018-12-07T00:12:19.118Z,19.75
2018-12-07T00:12:51.803Z,20.77
2018-12-07T00:13:24.371Z,21.37
2018-12-07T00:13:56.911Z,18.90
2018-12-07T00:14:29.556Z,20.50
2018-12-07T00:15:02.150Z,19.25
2018-12-07T00:15:34.734Z,19.80
2018-12-07T00:16:07.294Z,18.90
2018-12-07T00:16:39.856Z,19.17
2018-12-07T00:17:12.548Z,20.27
2018-12-07T00:17:45.130Z,20.15
2018-12-07T00:18:17.715Z,19.00
2018-12-07T00:18:50.293Z,20.08
2018-12-07T00:19:22.972Z,18.37
2018-12-07T00:19:55.567Z,19.40
2018-12-07T00:20:28.138Z,19.50
2018-12-07T00:21:00.719Z,19.67
2018-12-07T00:21:33.291Z,18.55
2018-12-07T00:22:05.862Z,18.92
2018-12-07T00:22:38.426Z,19.57
2018-12-07T00:23:10.995Z,19.12
2018-12-07T00:23:43.557Z,19.00
2018-12-07T00:24:16.131Z,18.05
2018-12-07T00:24:48.706Z,19.30
2018-12-07T00:25:22.339Z,19.50
2018-12-07T00:25:54.910Z,18.75
2018-12-07T00:26:27.482Z,18.70
2018-12-07T00:27:00.071Z,18.42
2018-12-07T00:27:32.656Z,19.02
2018-12-07T00:28:05.224Z,18.80
2018-12-07T00:28:37.803Z,20.70
2018-12-07T00:29:10.416Z,18.12
2018-12-07T00:29:42.990Z,20.55
2018-12-07T00:30:15.566Z,17.75
2018-12-07T00:30:48.293Z,19.30
2018-12-07T00:31:20.865Z,18.75
2018-12-07T00:31:53.754Z,17.35
2018-12-07T00:32:26.314Z,18.90
2018-12-07T00:32:58.898Z,18.35
2018-12-07T00:33:31.491Z,17.25
2018-12-07T00:34:04.235Z,18.52
2018-12-07T00:34:36.797Z,18.52
2018-12-07T00:35:09.395Z,17.07
2018-12-07T00:35:41.974Z,19.55
2018-12-07T00:36:14.575Z,17.85
2018-12-07T00:36:47.134Z,17.62
2018-12-07T00:37:19.706Z,16.77
2018-12-07T00:37:52.253Z,16.97
2018-12-07T00:38:24.970Z,17.75
2018-12-07T00:38:57.554Z,18.35
2018-12-07T00:39:30.118Z,18.45
2018-12-07T00:40:02.875Z,18.98
2018-12-07T00:40:35.416Z,19.50
2018-12-07T00:41:07.977Z,18.90
2018-12-07T00:41:40.561Z,18.80
2018-12-07T00:42:13.116Z,17.25
2018-12-07T00:42:45.792Z,17.52
2018-12-07T00:43:18.412Z,17.50
2018-12-07T00:43:51.122Z,18.87
2018-12-07T00:44:23.693Z,17.90
2018-12-07T00:44:56.259Z,16.62
2018-12-07T00:45:28.818Z,18.30
2018-12-07T00:46:01.389Z,17.73
2018-12-07T00:46:33.988Z,17.65
2018-12-07T00:47:06.577Z,17.70
2018-12-07T00:47:39.139Z,16.27
2018-12-07T00:48:12.572Z,17.00
2018-12-07T00:48:45.143Z,16.60
2018-12-07T00:49:17.716Z,17.85
2018-12-07T00:49:50.297Z,17.40
2018-12-07T00:50:23.003Z,17.52
2018-12-07T00:50:55.570Z,17.00
2018-12-07T00:51:28.141Z,17.12
2018-12-07T00:52:00.695Z,16.20
2018-12-07T00:52:33.273Z,17.07
2018-12-07T00:53:05.854Z,17.50
2018-12-07T00:53:38.425Z,16.80
2018-12-07T00:54:10.972Z,17.00
2018-12-07T00:54:43.538Z,17.10
2018-12-07T00:55:27.560Z,17.57
2018-12-07T00:56:00.155Z,16.10
2018-12-07T00:56:32.734Z,16.80
2018-12-07T00:57:05.332Z,16.87
2018-12-07T00:57:37.912Z,16.25
2018-12-07T00:58:10.471Z,17.35
2018-12-07T00:58:43.029Z,16.40
2018-12-07T00:59:15.606Z,16.55
2018-12-07T00:59:48.183Z,16.35
2018-12-07T01:00:20.746Z,16.73
2018-12-07T01:00:53.326Z,17.25
2018-12-07T01:01:25.893Z,16.07
2018-12-07T01:01:58.464Z,16.10
2018-12-07T01:02:31.028Z,15.85
2018-12-07T01:03:04.458Z,15.43
2018-12-07T01:03:37.012Z,15.05
2018-12-07T01:04:09.569Z,14.50
2018-12-07T01:04:42.147Z,15.48
2018-12-07T01:05:14.714Z,14.87
2018-12-07T01:05:47.281Z,15.90
2018-12-07T01:06:19.852Z,14.87
2018-12-07T01:06:52.417Z,15.50
2018-12-07T01:07:24.971Z,16.45
2018-12-07T01:07:57.531Z,14.78
2018-12-07T01:08:30.120Z,14.85
2018-12-07T01:09:04.501Z,15.20
2018-12-07T01:09:37.074Z,15.85
2018-12-07T01:10:09.643Z,15.43
2018-12-07T01:10:42.201Z,14.87
2018-12-07T01:11:14.774Z,14.18
2018-12-07T01:11:47.324Z,15.50
2018-12-07T01:12:19.892Z,16.70
2018-12-07T01:12:52.463Z,14.70
2018-12-07T01:13:25.041Z,15.70
2018-12-07T01:13:57.638Z,15.32
2018-12-07T01:14:30.221Z,15.40
2018-12-07T01:15:02.922Z,14.75
2018-12-07T01:15:35.468Z,14.95
2018-12-07T01:16:08.074Z,14.58
2018-12-07T01:16:40.636Z,14.75
2018-12-07T01:17:13.236Z,14.10
2018-12-07T01:17:45.830Z,15.50
2018-12-07T01:18:18.384Z,14.15
2018-12-07T01:18:50.955Z,13.30
2018-12-07T01:19:23.568Z,13.28
2018-12-07T01:19:56.129Z,14.33
2018-12-07T01:20:28.705Z,15.10
2018-12-07T01:21:01.289Z,14.53
2018-12-07T01:21:33.855Z,14.18
2018-12-07T01:22:06.405Z,15.10
2018-12-07T01:22:38.970Z,15.35
2018-12-07T01:23:11.562Z,15.20
2018-12-07T01:23:44.133Z,15.85
2018-12-07T01:24:16.694Z,14.47
2018-12-07T01:24:49.296Z,14.98
2018-12-07T01:25:21.866Z,13.28
2018-12-07T01:25:54.437Z,14.05
2018-12-07T01:26:27.018Z,12.82
2018-12-07T01:26:59.594Z,15.30
2018-12-07T01:27:32.153Z,14.20
2018-12-07T01:28:04.720Z,14.73
2018-12-07T01:28:37.297Z,14.25
2018-12-07T01:29:09.885Z,14.13
2018-12-07T01:29:42.447Z,14.50
2018-12-07T01:30:15.058Z,15.38
2018-12-07T01:30:47.640Z,12.75
2018-12-07T01:31:20.256Z,12.35
2018-12-07T01:31:53.274Z,14.10
2018-12-07T01:32:25.845Z,14.33
2018-12-07T01:32:58.402Z,13.50
2018-12-07T01:33:30.978Z,14.25
2018-12-07T01:34:03.916Z,13.95
2018-12-07T01:34:36.498Z,13.62
2018-12-07T01:35:09.207Z,13.40
2018-12-07T01:35:41.798Z,14.23
2018-12-07T01:36:14.373Z,13.15
2018-12-07T01:36:46.951Z,13.85
2018-12-07T01:37:19.513Z,13.75
2018-12-07T01:37:52.090Z,13.80
2018-12-07T01:38:24.777Z,14.05
2018-12-07T01:38:57.347Z,13.90
2018-12-07T01:39:29.901Z,13.35
2018-12-07T01:40:03.396Z,14.45
2018-12-07T01:40:35.961Z,13.43
2018-12-07T01:41:08.582Z,14.30
2018-12-07T01:41:41.149Z,14.30
2018-12-07T01:42:13.761Z,14.65
2018-12-07T01:42:46.665Z,13.70
2018-12-07T01:43:19.230Z,13.80
2018-12-07T01:43:51.810Z,12.98
2018-12-07T01:44:24.382Z,13.88
2018-12-07T01:44:56.972Z,14.60
2018-12-07T01:45:29.544Z,13.72
2018-12-07T01:46:02.105Z,14.28
2018-12-07T01:46:34.694Z,13.95
2018-12-07T01:47:07.263Z,13.58
2018-12-07T01:47:46.161Z,12.68
2018-12-07T01:48:18.713Z,14.00
2018-12-07T01:48:51.298Z,13.80
2018-12-07T01:49:23.851Z,13.53
2018-12-07T01:49:56.404Z,13.53
2018-12-07T01:50:28.968Z,13.60
2018-12-07T01:51:01.546Z,15.63
2018-12-07T01:51:34.143Z,14.00
2018-12-07T01:52:06.740Z,13.10
2018-12-07T01:52:39.312Z,14.03
2018-12-07T01:53:11.890Z,13.40
2018-12-07T01:53:44.463Z,13.65
2018-12-07T01:54:17.042Z,13.60
2018-12-07T01:54:49.590Z,13.83
2018-12-07T01:55:22.166Z,13.00
2018-12-07T01:55:54.768Z,14.00
2018-12-07T01:56:27.314Z,11.78
2018-12-07T01:56:59.882Z,13.18
2018-12-07T01:57:32.517Z,13.68
2018-12-07T01:58:05.102Z,12.43
2018-12-07T01:58:37.678Z,12.58
2018-12-07T01:59:10.257Z,12.98
2018-12-07T01:59:42.818Z,13.15
2018-12-07T02:00:15.416Z,13.55
2018-12-07T02:00:48.019Z,12.93
2018-12-07T02:01:20.596Z,12.47
2018-12-07T02:01:53.155Z,13.35
2018-12-07T02:02:25.750Z,12.85
2018-12-07T02:02:58.326Z,11.75
2018-12-07T02:03:30.974Z,13.00
2018-12-07T02:04:03.768Z,12.53
2018-12-07T02:04:36.384Z,12.35
2018-12-07T02:05:09.049Z,12.68
2018-12-07T02:05:41.624Z,11.93
2018-12-07T02:06:14.186Z,12.63
2018-12-07T02:06:46.784Z,12.35
2018-12-07T02:07:28.777Z,12.45
2018-12-07T02:08:01.352Z,12.50
2018-12-07T02:08:33.922Z,13.13
2018-12-07T02:09:07.266Z,12.35
2018-12-07T02:09:39.830Z,12.63
2018-12-07T02:10:12.413Z,12.78
2018-12-07T02:10:44.972Z,12.60
2018-12-07T02:11:17.516Z,12.47
2018-12-07T02:11:50.095Z,12.10
2018-12-07T02:12:22.660Z,12.43
2018-12-07T02:12:55.240Z,10.60
2018-12-07T02:13:27.829Z,12.13
2018-12-07T02:14:00.393Z,13.00
2018-12-07T02:14:32.941Z,12.25
2018-12-07T02:15:06.090Z,11.15
2018-12-07T02:15:38.642Z,11.68
2018-12-07T02:16:11.218Z,13.13
2018-12-07T02:16:43.793Z,11.63
2018-12-07T02:17:16.426Z,11.48
2018-12-07T02:17:49.026Z,11.63
2018-12-07T02:18:21.589Z,11.55
2018-12-07T02:18:54.168Z,11.12
2018-12-07T02:19:26.763Z,11.68
2018-12-07T02:19:59.337Z,12.47
2018-12-07T02:20:31.914Z,11.00
2018-12-07T02:21:04.500Z,10.32
2018-12-07T02:21:37.075Z,11.90
2018-12-07T02:22:09.650Z,11.95
2018-12-07T02:22:42.227Z,10.15
2018-12-07T02:23:14.777Z,11.03
2018-12-07T02:23:47.344Z,10.80
2018-12-07T02:24:19.928Z,10.35
2018-12-07T02:24:52.490Z,9.65
2018-12-07T02:25:25.071Z,10.80
2018-12-07T02:25:57.674Z,11.48
2018-12-07T02:26:30.272Z,11.03
2018-12-07T02:27:02.861Z,10.00
2018-12-07T02:27:41.217Z,10.53
2018-12-07T02:28:13.808Z,10.93
2018-12-07T02:28:46.390Z,10.70
2018-12-07T02:29:18.993Z,10.63
2018-12-07T02:29:51.585Z,11.57
2018-12-07T02:30:24.171Z,11.50
2018-12-07T02:30:56.731Z,9.88
2018-12-07T02:31:29.314Z,10.35
2018-12-07T02:32:01.884Z,10.63
2018-12-07T02:32:34.448Z,10.72
2018-12-07T02:33:07.004Z,10.30
2018-12-07T02:33:39.564Z,10.90
2018-12-07T02:34:12.122Z,10.72
2018-12-07T02:34:44.673Z,11.03
2018-12-07T02:35:17.258Z,9.65
2018-12-07T02:35:49.971Z,10.18
2018-12-07T02:36:22.537Z,11.03
2018-12-07T02:36:55.123Z,10.95
2018-12-07T02:37:27.689Z,10.23
2018-12-07T02:38:00.256Z,10.75
2018-12-07T02:38:32.819Z,11.10
2018-12-07T02:39:06.028Z,11.05
2018-12-07T02:39:38.710Z,10.70
2018-12-07T02:40:11.298Z,10.43
2018-12-07T02:40:44.020Z,11.70
2018-12-07T02:41:16.579Z,10.28
2018-12-07T02:41:49.158Z,11.10
2018-12-07T02:42:21.725Z,10.72
2018-12-07T02:42:54.277Z,10.28
2018-12-07T02:43:26.834Z,10.18
2018-12-07T02:43:59.411Z,9.90
2018-12-07T02:44:31.991Z,10.28
2018-12-07T02:45:04.997Z,8.88
2018-12-07T02:45:37.564Z,9.20
2018-12-07T02:46:10.160Z,9.98
2018-12-07T02:46:42.864Z,10.18
2018-12-07T02:47:15.424Z,9.50
2018-12-07T02:47:47.993Z,9.93
2018-12-07T02:48:20.582Z,10.15
2018-12-07T02:48:53.388Z,9.98
2018-12-07T02:49:25.958Z,9.70
2018-12-07T02:49:58.562Z,9.85
2018-12-07T02:50:31.150Z,10.78
2018-12-07T02:51:03.846Z,9.93
2018-12-07T02:51:36.450Z,10.70
2018-12-07T02:52:09.027Z,9.25
2018-12-07T02:52:41.588Z,10.30
2018-12-07T02:53:14.156Z,9.95
2018-12-07T02:53:46.733Z,10.15
2018-12-07T02:54:19.291Z,9.58
2018-12-07T02:54:51.870Z,11.28
2018-12-07T02:55:24.430Z,10.68
2018-12-07T02:55:57.125Z,9.88
2018-12-07T02:56:29.713Z,9.78
2018-12-07T02:57:02.355Z,10.38
2018-12-07T02:57:34.979Z,9.90
2018-12-07T02:58:07.550Z,10.68
2018-12-07T02:58:40.092Z,9.95
2018-12-07T02:59:12.697Z,9.40
2018-12-07T02:59:45.269Z,9.48
2018-12-07T03:00:17.842Z,9.15
2018-12-07T03:00:50.422Z,9.95
2018-12-07T03:01:22.989Z,10.30
2018-12-07T03:01:55.565Z,10.53
2018-12-07T03:02:28.186Z,9.13
2018-12-07T03:03:00.749Z,9.18
2018-12-07T03:03:33.317Z,10.00
2018-12-07T03:04:05.892Z,9.78
2018-12-07T03:04:38.470Z,9.18
2018-12-07T03:05:11.048Z,10.00
2018-12-07T03:05:43.613Z,9.90
2018-12-07T03:06:16.184Z,9.80
2018-12-07T03:06:48.770Z,9.35
2018-12-07T03:07:21.331Z,9.40
2018-12-07T03:07:53.958Z,9.45
2018-12-07T03:08:26.882Z,8.50
2018-12-07T03:08:59.464Z,9.63
2018-12-07T03:09:32.178Z,9.50
2018-12-07T03:10:05.657Z,9.45
2018-12-07T03:10:38.247Z,9.50
2018-12-07T03:11:10.837Z,9.75
2018-12-07T03:11:43.458Z,9.30
2018-12-07T03:12:16.036Z,9.70
2018-12-07T03:12:48.610Z,8.78
2018-12-07T03:13:21.243Z,9.35
2018-12-07T03:13:53.820Z,10.05
2018-12-07T03:14:26.396Z,9.40
2018-12-07T03:14:58.998Z,7.97
2018-12-07T03:15:31.603Z,9.25
2018-12-07T03:16:04.233Z,9.60
2018-12-07T03:16:36.843Z,8.40
2018-12-07T03:17:09.441Z,9.28
2018-12-07T03:17:42.039Z,10.18
2018-12-07T03:18:27.710Z,8.85
2018-12-07T03:19:00.323Z,7.97
2018-12-07T03:19:32.904Z,9.85
2018-12-07T03:20:05.650Z,9.18
2018-12-07T03:20:38.249Z,8.70
2018-12-07T03:21:10.836Z,8.75
2018-12-07T03:21:43.422Z,8.68
2018-12-07T03:22:16.012Z,8.83
2018-12-07T03:22:48.605Z,8.45
2018-12-07T03:23:21.208Z,8.43
2018-12-07T03:23:53.830Z,9.48
2018-12-07T03:24:26.414Z,9.70
2018-12-07T03:24:58.998Z,10.25
2018-12-07T03:25:31.625Z,9.15
2018-12-07T03:26:04.225Z,8.88
2018-12-07T03:26:36.826Z,8.13
2018-12-07T03:27:09.413Z,9.40
2018-12-07T03:27:42.013Z,9.30
2018-12-07T03:28:14.604Z,9.08
2018-12-07T03:28:47.226Z,9.80
2018-12-07T03:29:19.849Z,9.68
2018-12-07T03:29:52.457Z,9.18
2018-12-07T03:30:25.060Z,8.70
2018-12-07T03:30:57.649Z,9.73
2018-12-07T03:31:30.278Z,9.43
2018-12-07T03:32:02.884Z,9.83
2018-12-07T03:32:35.623Z,9.85
2018-12-07T03:33:08.403Z,9.60
2018-12-07T03:33:41.024Z,8.60
2018-12-07T03:34:13.702Z,9.48
2018-12-07T03:34:46.309Z,9.50
2018-12-07T03:35:18.898Z,9.80
2018-12-07T03:35:51.492Z,9.45
2018-12-07T03:36:24.098Z,8.75
2018-12-07T03:36:56.669Z,9.73
2018-12-07T03:37:29.271Z,9.83
2018-12-07T03:38:01.869Z,9.33
2018-12-07T03:38:34.467Z,10.15
2018-12-07T03:39:07.036Z,9.28
2018-12-07T03:39:39.627Z,9.50
2018-12-07T03:40:12.385Z,9.40
2018-12-07T03:40:44.983Z,9.23
2018-12-07T03:41:17.571Z,9.83
2018-12-07T03:41:50.162Z,9.93
2018-12-07T03:42:23.414Z,10.10
2018-12-07T03:42:56.040Z,9.70
2018-12-07T03:43:28.609Z,8.68
2018-12-07T03:44:01.211Z,9.93
2018-12-07T03:44:33.872Z,9.20
2018-12-07T03:45:06.638Z,10.10
2018-12-07T03:45:39.241Z,9.50
2018-12-07T03:46:11.841Z,10.03
2018-12-07T03:46:44.422Z,9.85
2018-12-07T03:47:17.038Z,10.30
2018-12-07T03:47:49.691Z,9.95
2018-12-07T03:48:22.304Z,10.08
2018-12-07T03:48:54.909Z,10.10
2018-12-07T03:49:27.500Z,9.73
2018-12-07T03:50:00.537Z,9.50
2018-12-07T03:50:33.197Z,9.25
2018-12-07T03:51:05.796Z,10.13
2018-12-07T03:51:38.406Z,9.70
2018-12-07T03:52:11.124Z,12.03
2018-12-07T03:52:43.850Z,10.43
2018-12-07T03:53:16.449Z,10.28
2018-12-07T03:53:49.051Z,10.00
2018-12-07T03:54:21.658Z,9.55
2018-12-07T03:54:54.365Z,10.93
2018-12-07T03:55:26.959Z,11.30
2018-12-07T03:55:59.556Z,10.25
2018-12-07T03:56:32.187Z,11.85
2018-12-07T03:57:04.783Z,10.93
2018-12-07T03:57:37.490Z,10.58
2018-12-07T03:58:10.075Z,10.60
2018-12-07T03:58:42.696Z,10.45
2018-12-07T03:59:15.298Z,10.80
2018-12-07T03:59:47.894Z,9.90
2018-12-07T04:00:20.473Z,11.80
2018-12-07T04:00:53.070Z,11.43
2018-12-07T04:01:25.670Z,10.72
2018-12-07T04:01:58.754Z,10.53
2018-12-07T04:02:31.358Z,11.45
2018-12-07T04:03:03.965Z,10.23
2018-12-07T04:03:36.561Z,11.40
2018-12-07T04:04:09.165Z,11.03
2018-12-07T04:04:41.807Z,11.22
2018-12-07T04:05:14.443Z,10.82
2018-12-07T04:05:47.124Z,10.38
2018-12-07T04:06:20.027Z,11.53
2018-12-07T04:06:52.618Z,10.90
2018-12-07T04:07:25.250Z,10.65
2018-12-07T04:07:57.815Z,10.90
2018-12-07T04:08:30.407Z,11.88
2018-12-07T04:09:05.126Z,11.10
2018-12-07T04:09:37.698Z,12.68
2018-12-07T04:10:10.306Z,12.45
2018-12-07T04:10:42.926Z,11.25
2018-12-07T04:11:15.493Z,11.95
2018-12-07T04:11:48.074Z,10.88
2018-12-07T04:12:20.659Z,11.65
2018-12-07T04:12:53.263Z,11.63
2018-12-07T04:13:25.838Z,11.70
2018-12-07T04:13:58.431Z,11.30
2018-12-07T04:14:31.057Z,11.90
2018-12-07T04:15:04.145Z,12.00
2018-12-07T04:15:36.850Z,12.15
2018-12-07T04:16:09.449Z,11.78
2018-12-07T04:16:42.030Z,12.28
2018-12-07T04:17:14.610Z,12.45
2018-12-07T04:17:47.185Z,12.10
2018-12-07T04:18:19.808Z,11.65
2018-12-07T04:18:52.405Z,11.55
2018-12-07T04:19:24.996Z,11.53
2018-12-07T04:19:57.615Z,11.40
2018-12-07T04:20:30.196Z,11.10
2018-12-07T04:21:02.802Z,11.95
2018-12-07T04:21:35.377Z,13.08
2018-12-07T04:22:07.970Z,11.57
2018-12-07T04:22:40.551Z,11.90
2018-12-07T04:23:13.143Z,12.13
2018-12-07T04:23:45.780Z,11.73
2018-12-07T04:24:18.378Z,11.95
2018-12-07T04:24:50.975Z,11.68
2018-12-07T04:25:23.593Z,11.90
2018-12-07T04:25:56.188Z,12.33
2018-12-07T04:26:28.753Z,11.73
2018-12-07T04:27:01.339Z,12.07
2018-12-07T04:27:33.955Z,10.20
2018-12-07T04:28:06.545Z,12.95
2018-12-07T04:28:39.138Z,11.60
2018-12-07T04:29:11.757Z,12.05
2018-12-07T04:29:44.333Z,11.00
2018-12-07T04:30:25.045Z,12.37
2018-12-07T04:30:57.663Z,11.70
2018-12-07T04:31:30.241Z,12.03
2018-12-07T04:32:02.940Z,13.65
2018-12-07T04:32:35.623Z,11.97
2018-12-07T04:33:08.218Z,11.73
2018-12-07T04:33:41.434Z,12.28
2018-12-07T04:34:14.174Z,12.63
2018-12-07T04:34:46.798Z,13.13
2018-12-07T04:35:19.521Z,12.70
2018-12-07T04:35:52.096Z,12.78
2018-12-07T04:36:24.673Z,12.47
2018-12-07T04:36:57.272Z,12.50
2018-12-07T04:37:29.862Z,13.30
2018-12-07T04:38:02.477Z,11.97
2018-12-07T04:38:35.041Z,12.18
2018-12-07T04:39:07.628Z,13.22
2018-12-07T04:39:40.261Z,13.10
2018-12-07T04:40:12.848Z,12.95
2018-12-07T04:40:45.442Z,12.23
2018-12-07T04:41:18.036Z,12.55
2018-12-07T04:41:50.665Z,13.10
2018-12-07T04:42:23.363Z,13.15
2018-12-07T04:42:55.949Z,13.60
2018-12-07T04:43:28.535Z,12.18
2018-12-07T04:44:01.094Z,13.32
2018-12-07T04:44:33.653Z,12.73
2018-12-07T04:45:06.388Z,11.93
2018-12-07T04:45:38.970Z,14.05
2018-12-07T04:46:11.577Z,13.05
2018-12-07T04:46:44.159Z,12.40
2018-12-07T04:47:16.735Z,13.08
2018-12-07T04:47:49.319Z,14.28
2018-12-07T04:48:21.885Z,12.65
2018-12-07T04:48:54.484Z,12.93
2018-12-07T04:49:27.068Z,12.35
2018-12-07T04:49:59.654Z,13.80
2018-12-07T04:50:32.249Z,13.15
2018-12-07T04:51:04.834Z,12.37
2018-12-07T04:51:37.427Z,12.47
2018-12-07T04:52:10.019Z,13.22
2018-12-07T04:52:42.617Z,12.37
2018-12-07T04:53:15.329Z,13.75
2018-12-07T04:53:47.914Z,13.15
2018-12-07T04:54:20.531Z,12.23
2018-12-07T04:54:53.119Z,12.70
2018-12-07T04:55:25.702Z,12.40
2018-12-07T04:55:58.308Z,12.80
2018-12-07T04:56:30.884Z,13.88
2018-12-07T04:57:03.480Z,12.20
2018-12-07T04:57:36.125Z,13.88
2018-12-07T04:58:08.722Z,13.13
2018-12-07T04:58:41.304Z,13.22
2018-12-07T04:59:13.888Z,12.80
2018-12-07T04:59:46.497Z,12.40
2018-12-07T05:00:19.087Z,12.70
2018-12-07T05:00:51.688Z,12.78
2018-12-07T05:01:24.297Z,13.78
2018-12-07T05:01:56.882Z,13.13
2018-12-07T05:02:29.483Z,12.90
2018-12-07T05:03:02.061Z,13.38
2018-12-07T05:03:34.647Z,13.10
2018-12-07T05:04:07.247Z,14.25
2018-12-07T05:04:39.873Z,13.62
2018-12-07T05:05:12.714Z,12.93
2018-12-07T05:05:45.293Z,13.40
2018-12-07T05:06:17.882Z,12.30
2018-12-07T05:06:50.508Z,12.70
2018-12-07T05:07:23.103Z,13.30
2018-12-07T05:07:55.670Z,12.73
2018-12-07T05:08:28.250Z,13.20
2018-12-07T05:09:00.835Z,13.48
2018-12-07T05:09:33.410Z,13.28
2018-12-07T05:10:06.492Z,12.68
2018-12-07T05:10:39.076Z,12.90
2018-12-07T05:11:11.681Z,14.25
2018-12-07T05:11:44.273Z,13.58
2018-12-07T05:12:16.904Z,12.13
2018-12-07T05:12:49.501Z,13.75
2018-12-07T05:13:22.106Z,13.10
2018-12-07T05:13:54.708Z,12.35
2018-12-07T05:14:27.301Z,11.75
2018-12-07T05:14:59.885Z,13.38
2018-12-07T05:15:32.452Z,13.20
2018-12-07T05:16:05.024Z,12.82
2018-12-07T05:16:37.638Z,13.28
2018-12-07T05:17:10.221Z,14.43
2018-12-07T05:17:42.837Z,12.47
2018-12-07T05:18:15.434Z,12.40
2018-12-07T05:18:48.029Z,13.55
2018-12-07T05:19:20.637Z,12.35
2018-12-07T05:19:53.232Z,14.15
2018-12-07T05:20:25.831Z,13.35
2018-12-07T05:20:58.415Z,13.38
2018-12-07T05:21:30.999Z,13.13
2018-12-07T05:22:03.603Z,14.30
2018-12-07T05:22:36.183Z,13.80
2018-12-07T05:23:08.800Z,13.95
2018-12-07T05:23:41.349Z,13.30
2018-12-07T05:24:13.928Z,14.40
2018-12-07T05:24:46.522Z,14.55
2018-12-07T05:25:19.081Z,13.45
2018-12-07T05:25:51.656Z,13.30
2018-12-07T05:26:24.226Z,14.07
2018-12-07T05:26:57.076Z,13.58
2018-12-07T05:27:29.645Z,13.80
2018-12-07T05:28:02.203Z,14.85
2018-12-07T05:28:34.813Z,14.10
2018-12-07T05:29:07.391Z,14.43
2018-12-07T05:29:39.997Z,13.45
2018-12-07T05:30:12.599Z,13.70
2018-12-07T05:30:45.212Z,13.03
2018-12-07T05:31:17.831Z,14.38
2018-12-07T05:31:50.426Z,14.30
2018-12-07T05:32:23.034Z,12.23
2018-12-07T05:32:55.633Z,13.88
2018-12-07T05:33:28.254Z,13.72
2018-12-07T05:34:00.888Z,12.90
2018-12-07T05:34:33.491Z,13.55
2018-12-07T05:35:12.557Z,12.53
2018-12-07T05:35:45.145Z,12.90
2018-12-07T05:36:17.729Z,13.25
2018-12-07T05:36:50.316Z,14.20
2018-12-07T05:37:22.935Z,14.30
2018-12-07T05:37:55.528Z,14.03
2018-12-07T05:38:28.102Z,12.68
2018-12-07T05:39:00.739Z,13.30
2018-12-07T05:39:33.350Z,14.05
2018-12-07T05:40:06.186Z,13.50
2018-12-07T05:40:38.799Z,13.50
2018-12-07T05:41:11.409Z,14.10
2018-12-07T05:41:44.036Z,13.00
2018-12-07T05:42:16.617Z,14.55
2018-12-07T05:42:49.211Z,14.35
2018-12-07T05:43:21.910Z,15.08
2018-12-07T05:43:56.845Z,13.00
2018-12-07T05:44:29.426Z,12.68
2018-12-07T05:45:02.059Z,13.32
2018-12-07T05:45:34.654Z,12.75
2018-12-07T05:46:07.255Z,13.40
2018-12-07T05:46:39.870Z,12.90
2018-12-07T05:47:12.461Z,13.32
2018-12-07T05:47:45.063Z,13.40
2018-12-07T05:48:23.645Z,14.18
2018-12-07T05:48:52.403Z,14.07
2018-12-07T05:49:25.615Z,13.78
2018-12-07T05:49:58.200Z,14.25
2018-12-07T05:50:30.834Z,13.60
2018-12-07T05:51:03.464Z,13.83
2018-12-07T05:51:36.044Z,13.68
2018-12-07T05:52:08.670Z,13.48
2018-12-07T05:52:41.266Z,13.40
2018-12-07T05:53:13.824Z,13.88
2018-12-07T05:53:46.434Z,14.30
2018-12-07T05:54:19.020Z,13.15
2018-12-07T05:54:51.619Z,14.40
2018-12-07T05:55:24.224Z,13.58
2018-12-07T05:55:56.871Z,13.43
2018-12-07T05:56:29.456Z,14.18
2018-12-07T05:57:02.065Z,14.43
2018-12-07T05:57:34.632Z,13.68
2018-12-07T05:58:07.264Z,13.62
2018-12-07T05:58:39.871Z,13.35
2018-12-07T05:59:12.485Z,14.15
2018-12-07T05:59:45.066Z,14.25
2018-12-07T06:00:17.682Z,13.48
2018-12-07T06:00:50.277Z,14.70
2018-12-07T06:01:22.927Z,14.07
2018-12-07T06:01:55.555Z,13.40
2018-12-07T06:02:28.160Z,14.73
2018-12-07T06:03:00.754Z,15.00
2018-12-07T06:03:33.426Z,14.87
2018-12-07T06:04:05.989Z,14.05
2018-12-07T06:04:38.614Z,14.75
2018-12-07T06:05:11.274Z,13.60
2018-12-07T06:05:43.941Z,14.75
2018-12-07T06:06:16.506Z,14.38
2018-12-07T06:06:49.128Z,14.68
2018-12-07T06:07:21.717Z,13.70
2018-12-07T06:07:54.304Z,14.50
2018-12-07T06:08:26.878Z,13.70
2018-12-07T06:08:59.452Z,14.00
2018-12-07T06:09:32.035Z,13.70
2018-12-07T06:10:04.969Z,14.40
2018-12-07T06:10:37.565Z,14.10
2018-12-07T06:11:10.146Z,14.58
2018-12-07T06:11:42.746Z,13.68
2018-12-07T06:12:15.365Z,14.05
2018-12-07T06:12:47.941Z,14.40
2018-12-07T06:13:20.534Z,15.00
2018-12-07T06:13:53.123Z,14.58
2018-12-07T06:14:25.735Z,14.80
2018-12-07T06:14:58.322Z,15.70
2018-12-07T06:15:30.907Z,14.87
2018-12-07T06:16:03.489Z,15.23
2018-12-07T06:16:36.062Z,15.32
2018-12-07T06:17:08.670Z,14.03
2018-12-07T06:17:41.288Z,14.38
2018-12-07T06:18:13.873Z,14.55
2018-12-07T06:18:46.469Z,14.43
2018-12-07T06:19:19.086Z,13.43
2018-12-07T06:19:51.677Z,15.05
2018-12-07T06:20:24.277Z,15.05
2018-12-07T06:20:56.890Z,15.48
2018-12-07T06:21:29.515Z,13.70
2018-12-07T06:22:02.096Z,13.72
2018-12-07T06:22:34.681Z,13.83
2018-12-07T06:23:07.376Z,13.85
2018-12-07T06:23:39.991Z,13.35
2018-12-07T06:24:12.573Z,14.60
2018-12-07T06:24:45.177Z,14.98
2018-12-07T06:25:17.757Z,15.25
2018-12-07T06:25:50.346Z,14.58
2018-12-07T06:26:22.946Z,15.70
2018-12-07T06:26:55.545Z,13.18
2018-12-07T06:27:28.143Z,14.07
2018-12-07T06:28:00.722Z,14.45
2018-12-07T06:28:33.329Z,14.43
2018-12-07T06:29:05.936Z,15.13
2018-12-07T06:29:38.539Z,13.75
2018-12-07T06:30:11.185Z,14.05
2018-12-07T06:30:43.786Z,13.28
2018-12-07T06:31:16.399Z,14.63
2018-12-07T06:31:49.103Z,14.23
2018-12-07T06:32:21.702Z,14.43
2018-12-07T06:32:54.276Z,13.45
2018-12-07T06:33:26.871Z,13.85
2018-12-07T06:33:59.506Z,13.88
2018-12-07T06:34:32.105Z,13.95
2018-12-07T06:35:04.809Z,14.30
2018-12-07T06:35:37.414Z,14.28
2018-12-07T06:36:10.021Z,14.53
2018-12-07T06:36:42.604Z,15.83
2018-12-07T06:37:15.218Z,14.38
2018-12-07T06:37:47.807Z,14.40
2018-12-07T06:38:20.446Z,13.53
2018-12-07T06:38:53.029Z,15.08
2018-12-07T06:39:25.663Z,14.87
2018-12-07T06:39:58.355Z,13.88
2018-12-07T06:40:31.107Z,14.00
2018-12-07T06:41:03.757Z,14.07
2018-12-07T06:41:36.429Z,14.38
2018-12-07T06:42:09.077Z,12.45
2018-12-07T06:42:41.765Z,14.43
2018-12-07T06:43:14.474Z,14.00
2018-12-07T06:43:47.618Z,13.40
2018-12-07T06:44:20.196Z,13.85
2018-12-07T06:44:52.868Z,13.68
2018-12-07T06:45:25.450Z,14.95
2018-12-07T06:45:58.058Z,14.03
2018-12-07T06:46:30.654Z,12.93
2018-12-07T06:47:03.263Z,14.15
2018-12-07T06:47:35.880Z,14.35
2018-12-07T06:48:08.443Z,14.38
2018-12-07T06:48:41.033Z,14.15
2018-12-07T06:49:13.671Z,14.30
2018-12-07T06:49:46.260Z,13.05
2018-12-07T06:50:18.861Z,13.90
2018-12-07T06:50:51.447Z,13.90
2018-12-07T06:51:24.066Z,13.93
2018-12-07T06:51:56.691Z,12.90
2018-12-07T06:52:29.278Z,14.43
2018-12-07T06:53:01.877Z,13.72
2018-12-07T06:53:34.448Z,13.93
2018-12-07T06:54:07.069Z,13.90
2018-12-07T06:54:39.730Z,12.05
2018-12-07T06:55:12.327Z,13.55
2018-12-07T06:55:44.936Z,12.90
2018-12-07T06:56:17.758Z,13.75
2018-12-07T06:56:50.365Z,14.20
2018-12-07T06:57:22.967Z,13.00
2018-12-07T06:57:55.545Z,12.28
2018-12-07T06:58:28.170Z,12.53
2018-12-07T06:59:00.751Z,13.00
2018-12-07T06:59:33.394Z,12.80
2018-12-07T07:00:07.216Z,14.25
2018-12-07T07:00:39.832Z,12.88
2018-12-07T07:01:12.454Z,13.75
2018-12-07T07:01:45.058Z,12.80
2018-12-07T07:02:17.650Z,12.68
2018-12-07T07:02:50.339Z,13.88
2018-12-07T07:03:22.967Z,12.85